Time;durP1;ratioP1;P1;durP2;ratioP2;P2;SDS_P1;SDS_P2;PMS_P1;PMS_P2;Temp;Humidity;BMP_temperature;BMP_pressure;BME280_temperature;BME280_humidity;BME280_pressure;Samples;Min_cycle;Max_cycle;Signal;HPM_P1;HPM_P2
2022/05/13 00:01:21;;;;;;;17.42;2.90;;;13.10;99.90;;;;;;4967557;28;20022;-70
2022/05/13 00:03:47;;;;;;;10.07;3.10;;;13.10;99.90;;;;;;4986082;28;20034;-69
2022/05/13 00:06:13;;;;;;;7.57;3.00;;;13.00;99.90;;;;;;4969165;28;20030;-70
2022/05/13 00:08:39;;;;;;;12.35;3.20;;;13.00;99.90;;;;;;4986695;28;20050;-70
2022/05/13 00:11:06;;;;;;;8.52;3.03;;;13.00;99.90;;;;;;4986799;28;20038;-70
2022/05/13 00:13:33;;;;;;;8.00;2.55;;;13.00;99.90;;;;;;4986553;28;20046;-70
2022/05/13 00:15:59;;;;;;;9.93;3.20;;;13.00;99.90;;;;;;4985593;28;20022;-70
2022/05/13 00:18:26;;;;;;;13.20;2.80;;;13.00;99.90;;;;;;4978227;28;20023;-69
2022/05/13 00:20:52;;;;;;;6.20;2.72;;;12.90;99.90;;;;;;4985950;28;20026;-69
2022/05/13 00:23:18;;;;;;;7.95;2.92;;;12.90;99.90;;;;;;4968441;28;20113;-69
2022/05/13 00:25:44;;;;;;;4.03;2.60;;;12.90;99.90;;;;;;4986632;28;20078;-68
2022/05/13 00:28:10;;;;;;;4.95;2.63;;;12.80;99.90;;;;;;4986192;28;20882;-69
2022/05/13 00:30:40;;;;;;;10.02;3.47;;;12.80;99.90;;;;;;4986280;28;20046;-70
2022/05/13 00:33:06;;;;;;;6.45;2.92;;;12.80;99.90;;;;;;4986497;28;20392;-69
2022/05/13 00:35:32;;;;;;;7.47;3.20;;;12.80;99.90;;;;;;4985781;28;20031;-70
2022/05/13 00:37:58;;;;;;;6.97;3.45;;;12.70;99.90;;;;;;4981626;28;20030;-70
2022/05/13 00:40:29;;;;;;;5.10;2.47;;;12.70;99.90;;;;;;4975229;28;20031;-69
2022/05/13 00:43:02;;;;;;;6.75;3.33;;;12.70;99.90;;;;;;4966984;28;20118;-70
2022/05/13 00:45:29;;;;;;;8.25;3.03;;;12.60;99.90;;;;;;4967216;28;20027;-70
2022/05/13 00:47:55;;;;;;;9.18;2.95;;;12.60;99.90;;;;;;4966645;28;20031;-69
2022/05/13 00:50:20;;;;;;;12.88;2.97;;;12.60;99.90;;;;;;4966119;28;20039;-70
2022/05/13 00:52:49;;;;;;;7.13;3.15;;;12.50;99.90;;;;;;4966689;29;20055;-69
2022/05/13 00:55:24;;;;;;;4.32;2.90;;;12.50;99.90;;;;;;4966680;28;20027;-69
2022/05/13 00:57:51;;;;;;;7.90;3.00;;;12.50;99.90;;;;;;4966224;28;20029;-70
2022/05/13 01:00:18;;;;;;;7.07;2.97;;;12.50;99.90;;;;;;4966352;28;20106;-70
2022/05/13 01:02:45;;;;;;;6.03;2.75;;;12.50;99.90;;;;;;4966171;29;20099;-69
2022/05/13 01:05:13;;;;;;;8.70;3.13;;;12.40;99.90;;;;;;4966363;28;20025;-69
2022/05/13 01:07:40;;;;;;;14.70;3.40;;;12.40;99.90;;;;;;4973665;28;20078;-68
2022/05/13 01:10:09;;;;;;;7.47;3.10;;;12.40;99.90;;;;;;4980279;28;20029;-70
2022/05/13 01:12:40;;;;;;;6.47;2.80;;;12.40;99.90;;;;;;4985713;28;20077;-70
2022/05/13 01:15:12;;;;;;;9.13;3.40;;;12.40;99.90;;;;;;4985029;28;20029;-71
2022/05/13 01:20:30;;;;;;;6.07;2.22;;;12.30;99.90;;;;;;4985981;28;20041;-70
2022/05/13 01:23:02;;;;;;;7.30;2.50;;;12.30;99.90;;;;;;4985367;28;20078;-69
2022/05/13 01:25:33;;;;;;;5.80;2.40;;;12.30;99.90;;;;;;4985661;28;20031;-71
2022/05/13 01:28:07;;;;;;;3.97;1.65;;;12.30;99.90;;;;;;4985901;28;20026;-71
2022/05/13 01:30:34;;;;;;;2.95;1.63;;;12.20;99.90;;;;;;4985289;28;20030;-71
2022/05/13 01:33:00;;;;;;;4.28;2.10;;;12.20;99.90;;;;;;4985434;28;20055;-70
2022/05/13 01:35:26;;;;;;;1.88;1.52;;;12.20;99.90;;;;;;4986026;28;20062;-71
2022/05/13 01:37:52;;;;;;;3.70;1.95;;;12.20;99.90;;;;;;4985185;28;20078;-69
2022/05/13 01:40:18;;;;;;;7.00;2.40;;;12.20;99.90;;;;;;4985823;28;20027;-70
2022/05/13 01:42:43;;;;;;;5.28;1.67;;;12.10;99.90;;;;;;4984990;28;20043;-71
2022/05/13 01:45:11;;;;;;;3.85;2.28;;;12.10;99.90;;;;;;4985249;28;20038;-70
2022/05/13 01:47:37;;;;;;;9.10;2.40;;;12.10;99.90;;;;;;4985411;28;20031;-70
2022/05/13 01:50:06;;;;;;;5.95;1.70;;;12.10;99.90;;;;;;4985773;28;20019;-70
2022/05/13 01:52:32;;;;;;;8.60;1.88;;;12.00;99.90;;;;;;4984909;28;20027;-71
2022/05/13 01:54:58;;;;;;;6.13;2.20;;;12.00;99.90;;;;;;4985476;28;20059;-70
2022/05/13 01:57:23;;;;;;;6.35;2.25;;;12.00;99.90;;;;;;4985444;28;20054;-69
2022/05/13 01:59:49;;;;;;;3.83;1.60;;;12.00;99.90;;;;;;4985197;28;20031;-69
2022/05/13 02:02:15;;;;;;;5.77;1.73;;;11.90;99.90;;;;;;4985867;28;20027;-70
2022/05/13 02:04:40;;;;;;;3.75;2.38;;;11.90;99.90;;;;;;4989053;28;20093;-69
2022/05/13 02:07:06;;;;;;;14.52;2.35;;;11.80;99.90;;;;;;4988398;28;20058;-69
2022/05/13 02:09:35;;;;;;;9.18;1.65;;;11.80;99.90;;;;;;4989188;28;20031;-70
2022/05/13 02:12:02;;;;;;;7.30;2.22;;;11.70;99.90;;;;;;4988931;28;20034;-70
2022/05/13 02:14:28;;;;;;;5.22;2.13;;;11.70;99.90;;;;;;4988868;28;20034;-70
2022/05/13 02:16:53;;;;;;;11.40;1.95;;;11.70;99.90;;;;;;4988926;28;20023;-69
2022/05/13 02:19:19;;;;;;;2.83;1.58;;;11.60;99.90;;;;;;4987123;28;20023;-71
2022/05/13 02:21:44;;;;;;;3.65;1.92;;;11.60;99.90;;;;;;4988485;28;20045;-69
2022/05/13 02:24:10;;;;;;;6.15;2.58;;;11.50;99.90;;;;;;4988539;28;20062;-70
2022/05/13 02:26:36;;;;;;;3.17;2.15;;;11.50;99.90;;;;;;4969865;28;20031;-69
2022/05/13 02:29:03;;;;;;;4.97;2.25;;;11.50;99.90;;;;;;4968834;28;20035;-69
2022/05/13 02:31:30;;;;;;;7.30;2.65;;;11.50;99.90;;;;;;4969355;28;20083;-70
2022/05/13 02:33:56;;;;;;;5.35;2.50;;;11.50;99.90;;;;;;4969032;28;20027;-69
2022/05/13 02:36:21;;;;;;;17.55;3.38;;;11.50;99.90;;;;;;4969268;28;20038;-69
2022/05/13 02:38:47;;;;;;;2.88;2.17;;;11.40;99.90;;;;;;4969032;28;20041;-69
2022/05/13 02:41:12;;;;;;;4.05;2.58;;;11.40;99.90;;;;;;4973889;28;20031;-70
2022/05/13 02:43:43;;;;;;;8.30;3.35;;;11.40;99.90;;;;;;4988360;28;20074;-69
2022/05/13 02:46:09;;;;;;;3.70;2.50;;;11.30;99.90;;;;;;4988371;28;20491;-70
2022/05/13 02:48:35;;;;;;;7.82;3.83;;;11.30;99.90;;;;;;4988195;28;20027;-70
2022/05/13 02:51:02;;;;;;;9.80;2.20;;;11.20;99.90;;;;;;4988016;28;20491;-70
2022/05/13 02:53:28;;;;;;;6.82;2.72;;;11.20;99.90;;;;;;4988019;28;20037;-70
2022/05/13 02:55:54;;;;;;;9.60;3.25;;;11.20;99.90;;;;;;4988412;28;20061;-68
2022/05/13 02:58:19;;;;;;;10.25;2.97;;;11.20;99.90;;;;;;4988161;28;20442;-69
2022/05/13 03:00:45;;;;;;;12.40;3.35;;;11.20;99.90;;;;;;4987996;28;20376;-70
2022/05/13 03:03:12;;;;;;;6.68;3.10;;;11.20;99.90;;;;;;4987779;28;20094;-69
2022/05/13 03:05:38;;;;;;;13.10;2.55;;;11.20;99.90;;;;;;4987792;28;20038;-70
2022/05/13 03:08:07;;;;;;;2.75;2.10;;;11.20;99.90;;;;;;4987372;28;20038;-70
2022/05/13 03:10:36;;;;;;;4.88;2.42;;;11.20;99.90;;;;;;4987920;28;20117;-70
2022/05/13 03:13:05;;;;;;;4.47;2.78;;;11.20;99.90;;;;;;4987561;28;20035;-70
2022/05/13 03:15:32;;;;;;;7.10;2.05;;;11.20;99.90;;;;;;4987482;28;20165;-69
2022/05/13 03:17:58;;;;;;;5.55;2.60;;;11.20;99.90;;;;;;4987914;28;20026;-69
2022/05/13 03:20:29;;;;;;;3.90;2.28;;;11.10;99.90;;;;;;4987757;28;20145;-69
2022/05/13 03:22:54;;;;;;;4.35;2.45;;;11.10;99.90;;;;;;4987453;28;20078;-70
2022/05/13 03:25:21;;;;;;;4.07;2.28;;;11.10;99.90;;;;;;4987356;28;20492;-70
2022/05/13 03:27:47;;;;;;;4.15;2.17;;;11.10;99.90;;;;;;4987088;28;20051;-70
2022/05/13 03:30:15;;;;;;;4.30;2.50;;;11.20;99.90;;;;;;4987417;28;20034;-70
2022/05/13 03:32:41;;;;;;;2.80;1.90;;;11.20;99.90;;;;;;4987628;28;20505;-70
2022/05/13 03:35:10;;;;;;;4.63;2.55;;;11.20;99.90;;;;;;4987077;28;20031;-70
2022/05/13 03:37:36;;;;;;;2.80;1.65;;;11.20;99.90;;;;;;4987242;28;20130;-71
2022/05/13 03:40:02;;;;;;;7.25;2.53;;;11.30;99.90;;;;;;4987474;28;20491;-70
2022/05/13 03:42:29;;;;;;;4.60;1.80;;;11.30;99.90;;;;;;4986909;28;20081;-70
2022/05/13 03:44:58;;;;;;;7.45;2.58;;;11.30;99.90;;;;;;4987189;28;20023;-70
2022/05/13 03:47:23;;;;;;;9.43;2.83;;;11.30;99.90;;;;;;4987253;28;20034;-70
2022/05/13 03:49:49;;;;;;;4.70;1.85;;;11.30;99.90;;;;;;4986942;28;20094;-71
2022/05/13 03:52:15;;;;;;;5.57;2.40;;;11.30;99.90;;;;;;4987123;28;20062;-70
2022/05/13 03:54:41;;;;;;;4.28;2.13;;;11.30;99.90;;;;;;4986786;28;20023;-71
2022/05/13 03:57:07;;;;;;;2.70;1.75;;;11.30;99.90;;;;;;4969262;28;20030;-70
2022/05/13 03:59:34;;;;;;;9.73;2.72;;;11.30;99.90;;;;;;4985755;28;20027;-71
2022/05/13 04:02:02;;;;;;;6.70;2.38;;;11.40;99.90;;;;;;4986470;28;20035;-71
2022/05/13 04:04:29;;;;;;;4.85;1.67;;;11.40;99.90;;;;;;4968371;28;20067;-71
2022/05/13 04:09:43;;;;;;;8.32;2.85;;;11.40;99.90;;;;;;4967324;28;20066;-71
2022/05/13 04:17:39;;;;;;;13.77;2.05;;;11.60;99.90;;;;;;4981065;28;20427;-69
2022/05/13 04:20:06;;;;;;;5.05;2.00;;;11.70;99.90;;;;;;4985489;28;20027;-69
2022/05/13 04:22:32;;;;;;;8.60;1.67;;;11.60;99.90;;;;;;4970431;28;20062;-68
2022/05/13 04:24:58;;;;;;;10.85;2.40;;;11.70;99.90;;;;;;4970751;28;20027;-70
2022/05/13 04:27:24;;;;;;;4.28;2.20;;;11.70;99.90;;;;;;4973077;28;20118;-70
2022/05/13 04:29:52;;;;;;;2.90;1.40;;;11.80;99.90;;;;;;4981255;28;20835;-70
2022/05/13 04:32:17;;;;;;;8.93;1.98;;;11.90;99.90;;;;;;4986454;28;20476;-69
2022/05/13 04:34:43;;;;;;;2.20;1.33;;;11.90;99.90;;;;;;4986337;28;20058;-69
2022/05/13 04:37:09;;;;;;;4.72;1.90;;;12.00;99.90;;;;;;4985798;28;20031;-70
2022/05/13 04:39:35;;;;;;;4.65;1.73;;;12.00;99.90;;;;;;4978946;28;20030;-71
2022/05/13 04:44:46;;;;;;;4.05;1.90;;;12.10;99.90;;;;;;4982819;28;20054;-69
2022/05/13 04:49:58;;;;;;;7.35;2.60;;;12.00;99.90;;;;;;4981759;28;20037;-71
2022/05/13 04:52:24;;;;;;;2.92;1.63;;;12.10;99.90;;;;;;4985152;28;20088;-69
2022/05/13 04:54:49;;;;;;;3.95;1.70;;;12.10;99.90;;;;;;4968750;28;20030;-70
2022/05/13 04:57:19;;;;;;;2.08;1.40;;;12.10;99.90;;;;;;4984897;28;20054;-72
2022/05/13 04:59:44;;;;;;;2.35;1.58;;;12.10;99.90;;;;;;4986031;28;20022;-69
2022/05/13 05:02:10;;;;;;;8.10;2.17;;;12.10;99.90;;;;;;4986040;28;20105;-69
2022/05/13 05:04:36;;;;;;;3.22;1.92;;;12.10;99.90;;;;;;4985565;28;20042;-70
2022/05/13 05:07:02;;;;;;;3.28;1.58;;;12.10;99.90;;;;;;4985879;28;20023;-69
2022/05/13 05:09:28;;;;;;;2.63;1.42;;;12.10;99.90;;;;;;4985429;28;20033;-70
2022/05/13 05:11:53;;;;;;;7.80;1.80;;;12.10;99.90;;;;;;4985737;28;20074;-70
2022/05/13 05:14:19;;;;;;;3.60;1.50;;;12.10;99.90;;;;;;4986015;28;20034;-70
2022/05/13 05:16:44;;;;;;;5.60;1.75;;;12.10;99.90;;;;;;4985807;28;20041;-69
2022/05/13 05:19:10;;;;;;;3.55;1.70;;;12.10;99.90;;;;;;4985528;28;20074;-74
2022/05/13 05:21:36;;;;;;;3.35;1.90;;;12.10;99.90;;;;;;4985793;28;20027;-70
2022/05/13 05:24:02;;;;;;;8.65;1.83;;;12.10;99.90;;;;;;4984953;28;20068;-71
2022/05/13 05:26:29;;;;;;;7.30;2.17;;;12.10;99.90;;;;;;4983616;28;20058;-72
2022/05/13 05:28:55;;;;;;;4.80;1.92;;;12.00;99.90;;;;;;4966173;28;20038;-69
2022/05/13 05:31:20;;;;;;;2.47;1.70;;;12.00;99.90;;;;;;4965705;28;20031;-70
2022/05/13 05:33:46;;;;;;;5.97;2.03;;;12.00;99.90;;;;;;4971576;28;20618;-71
2022/05/13 05:36:13;;;;;;;10.45;2.22;;;12.00;99.90;;;;;;4979837;28;20035;-69
2022/05/13 05:38:38;;;;;;;4.22;2.05;;;12.10;99.90;;;;;;4975079;28;20030;-68
2022/05/13 05:41:04;;;;;;;7.65;2.08;;;12.10;99.90;;;;;;4979322;28;20039;-69
2022/05/13 05:43:31;;;;;;;5.13;1.90;;;12.20;99.90;;;;;;4957846;28;20050;-67
2022/05/13 05:45:58;;;;;;;4.03;1.92;;;12.20;99.90;;;;;;4979450;28;20039;-68
2022/05/13 05:48:24;;;;;;;7.00;1.90;;;12.20;99.90;;;;;;4974054;28;20031;-69
2022/05/13 05:50:51;;;;;;;5.35;2.08;;;12.20;99.90;;;;;;4952757;28;20027;-73
2022/05/13 05:58:46;;;;;;;10.10;2.78;;;12.20;99.90;;;;;;4988648;28;20094;-68
2022/05/13 06:01:13;;;;;;;4.22;1.67;;;12.20;99.90;;;;;;4974575;28;20044;-69
2022/05/13 06:03:38;;;;;;;3.25;1.55;;;12.20;99.90;;;;;;4983725;28;20050;-69
2022/05/13 06:06:05;;;;;;;12.85;2.20;;;12.20;99.90;;;;;;4987814;28;20089;-70
2022/05/13 06:08:31;;;;;;;5.25;2.22;;;12.10;99.90;;;;;;4970802;28;20111;-68
2022/05/13 06:10:57;;;;;;;2.63;1.48;;;12.10;99.90;;;;;;4989516;28;20035;-71
2022/05/13 06:13:22;;;;;;;4.57;1.45;;;12.10;99.90;;;;;;4969707;28;20507;-69
2022/05/13 06:15:48;;;;;;;4.93;2.30;;;12.10;99.90;;;;;;4986745;28;20034;-72
2022/05/13 06:18:14;;;;;;;7.57;2.88;;;12.10;99.90;;;;;;4967239;28;20032;-72
2022/05/13 06:20:41;;;;;;;4.45;1.67;;;12.10;99.90;;;;;;4951939;28;20119;-70
2022/05/13 06:23:07;;;;;;;5.07;2.25;;;12.10;99.90;;;;;;4968421;28;20496;-68
2022/05/13 06:25:32;;;;;;;4.05;1.42;;;12.00;99.90;;;;;;4984635;28;20038;-69
2022/05/13 06:28:01;;;;;;;6.97;2.05;;;12.10;99.90;;;;;;4988692;28;20447;-70
2022/05/13 06:30:31;;;;;;;13.07;2.35;;;12.10;99.90;;;;;;4982533;28;20350;-71
2022/05/13 06:33:03;;;;;;;4.10;2.17;;;12.10;99.90;;;;;;4977841;28;20051;-71
2022/05/13 06:35:32;;;;;;;6.15;2.05;;;12.10;99.90;;;;;;4965284;28;20039;-67
2022/05/13 06:37:58;;;;;;;2.35;1.60;;;12.10;99.90;;;;;;4978466;28;20054;-70
2022/05/13 06:40:26;;;;;;;5.75;2.42;;;12.10;99.90;;;;;;4973725;28;20424;-73
2022/05/13 06:42:52;;;;;;;7.80;2.70;;;12.10;99.90;;;;;;4980324;28;20042;-72
2022/05/13 06:45:18;;;;;;;5.95;2.13;;;12.10;99.90;;;;;;4962864;28;20439;-71
2022/05/13 06:47:44;;;;;;;3.80;1.80;;;12.10;99.90;;;;;;4977333;28;20031;-67
2022/05/13 06:50:16;;;;;;;9.20;2.35;;;12.10;99.90;;;;;;4968181;28;20050;-69
2022/05/13 06:52:43;;;;;;;9.88;1.77;;;12.10;99.90;;;;;;4980457;28;20027;-69
2022/05/13 06:55:15;;;;;;;5.00;2.38;;;12.20;99.90;;;;;;4985051;28;20470;-69
2022/05/13 06:57:41;;;;;;;3.15;1.80;;;12.20;99.90;;;;;;4969572;28;20030;-67
2022/05/13 07:00:08;;;;;;;6.15;1.75;;;12.30;99.90;;;;;;4985048;28;20054;-69
2022/05/13 07:02:34;;;;;;;2.38;1.35;;;12.30;99.90;;;;;;4987452;28;20117;-69
2022/05/13 07:04:59;;;;;;;4.80;1.55;;;12.40;99.90;;;;;;4987657;28;20062;-68
2022/05/13 07:07:27;;;;;;;4.28;1.70;;;12.40;99.90;;;;;;4988244;28;20055;-75
2022/05/13 07:09:52;;;;;;;8.80;2.25;;;12.50;99.90;;;;;;4969822;28;20042;-69
2022/05/13 07:12:18;;;;;;;5.38;2.05;;;12.50;99.90;;;;;;4987698;28;20030;-68
2022/05/13 07:14:44;;;;;;;12.60;2.40;;;12.50;99.90;;;;;;4978945;28;20105;-68
2022/05/13 07:17:09;;;;;;;6.85;1.98;;;12.50;99.90;;;;;;4978933;28;20038;-68
2022/05/13 07:19:35;;;;;;;4.50;1.90;;;12.60;99.90;;;;;;4984946;28;20035;-71
2022/05/13 07:22:00;;;;;;;4.88;2.42;;;12.60;99.90;;;;;;4976817;28;20058;-72
2022/05/13 07:24:28;;;;;;;6.00;2.17;;;12.60;99.90;;;;;;4978305;28;20511;-69
2022/05/13 07:26:54;;;;;;;7.05;2.30;;;12.60;99.90;;;;;;4950464;29;20047;-69
2022/05/13 07:29:19;;;;;;;9.82;2.47;;;12.70;99.90;;;;;;4967662;29;20038;-75
2022/05/13 07:31:46;;;;;;;9.48;2.75;;;12.80;99.90;;;;;;4954835;28;20031;-72
2022/05/13 07:34:11;;;;;;;11.32;2.10;;;12.80;99.90;;;;;;4987322;28;20035;-73
2022/05/13 07:36:37;;;;;;;3.22;1.90;;;12.80;99.90;;;;;;4973591;28;20543;-72
2022/05/13 07:41:52;;;;;;;7.88;2.30;;;12.90;99.90;;;;;;4973137;28;20041;-70
2022/05/13 07:44:17;;;;;;;4.55;1.80;;;13.00;99.90;;;;;;4971362;28;20047;-71
2022/05/13 07:46:43;;;;;;;11.00;2.30;;;13.10;99.90;;;;;;4983493;28;20027;-71
2022/05/13 07:49:09;;;;;;;4.13;2.17;;;13.20;99.90;;;;;;4983785;28;20482;-67
2022/05/13 07:51:35;;;;;;;9.38;1.80;;;13.30;99.90;;;;;;4981567;28;20074;-70
2022/05/13 07:54:01;;;;;;;5.07;2.15;;;13.40;99.90;;;;;;4968249;28;20106;-70
2022/05/13 07:56:27;;;;;;;7.57;2.55;;;13.40;99.90;;;;;;4984267;28;20042;-69
2022/05/13 07:58:53;;;;;;;8.85;2.53;;;13.60;99.90;;;;;;4985984;28;20038;-70
2022/05/13 08:01:20;;;;;;;11.55;2.72;;;13.70;99.90;;;;;;4981774;28;20639;-71
2022/05/13 08:03:47;;;;;;;7.85;2.47;;;13.80;99.90;;;;;;4985084;28;20046;-68
2022/05/13 08:06:13;;;;;;;9.70;3.05;;;13.80;99.90;;;;;;4983772;28;20432;-70
2022/05/13 08:08:45;;;;;;;9.52;2.00;;;13.90;99.90;;;;;;4984191;28;20086;-70
2022/05/13 08:11:14;;;;;;;6.45;2.17;;;14.00;99.90;;;;;;4976584;28;20033;-71
2022/05/13 08:13:41;;;;;;;3.10;1.58;;;14.00;99.90;;;;;;4976425;28;20034;-73
2022/05/13 08:16:11;;;;;;;3.85;2.17;;;14.10;99.90;;;;;;4967170;28;20027;-69
2022/05/13 08:18:39;;;;;;;3.70;1.92;;;14.30;99.90;;;;;;4966826;28;20027;-70
2022/05/13 08:21:06;;;;;;;3.75;2.10;;;14.40;99.90;;;;;;4966360;28;20027;-70
2022/05/13 08:23:32;;;;;;;5.22;2.28;;;14.50;99.90;;;;;;4978730;28;20051;-72
2022/05/13 08:25:57;;;;;;;2.75;1.35;;;14.70;99.90;;;;;;4958208;28;20063;-72
2022/05/13 08:28:24;;;;;;;12.77;2.63;;;14.70;99.90;;;;;;4984986;28;20034;-70
2022/05/13 08:30:51;;;;;;;7.47;2.80;;;14.70;99.90;;;;;;4986181;28;20042;-71
2022/05/13 08:33:17;;;;;;;8.05;1.98;;;14.70;99.90;;;;;;4986324;28;20034;-72
2022/05/13 08:35:48;;;;;;;7.93;2.35;;;14.80;99.90;;;;;;4984137;28;20034;-71
2022/05/13 08:38:16;;;;;;;4.88;1.80;;;14.90;99.90;;;;;;4966240;28;20087;-70
2022/05/13 08:40:52;;;;;;;4.22;1.83;;;15.00;99.90;;;;;;4966582;28;20043;-69
2022/05/13 08:43:40;;;;;;;7.75;2.35;;;15.00;99.90;;;;;;4966678;28;20059;-69
2022/05/13 08:46:39;;;;;;;7.88;1.70;;;15.10;99.90;;;;;;4983217;28;20038;-74
2022/05/13 08:49:44;;;;;;;5.30;1.83;;;15.10;99.90;;;;;;4985221;28;20041;-73
2022/05/13 08:55:09;;;;;;;3.28;2.00;;;15.10;99.90;;;;;;4983070;28;20099;-70
2022/05/13 08:57:43;;;;;;;4.03;2.10;;;15.20;99.90;;;;;;4985677;28;20022;-71
2022/05/13 09:00:15;;;;;;;13.52;2.85;;;15.20;99.90;;;;;;4984961;28;20399;-72
2022/05/13 09:02:49;;;;;;;10.77;2.20;;;15.30;99.90;;;;;;4983613;28;20054;-71
2022/05/13 09:05:29;;;;;;;;;;;15.40;99.90;;;;;;4976146;28;20051;-70
2022/05/13 09:07:55;;;;;;;15.60;1.60;;;15.30;99.90;;;;;;4977090;28;19911;-70
2022/05/13 09:10:25;;;;;;;3.25;1.48;;;15.40;99.90;;;;;;4966717;28;20019;-74
2022/05/13 09:13:01;;;;;;;3.88;1.80;;;15.50;99.90;;;;;;4968471;28;20030;-73
2022/05/13 09:16:02;;;;;;;9.00;2.35;;;15.60;99.90;;;;;;4975029;28;20113;-70
2022/05/13 09:19:03;;;;;;;9.02;1.95;;;15.80;99.90;;;;;;4933735;28;20043;-70
2022/05/13 09:21:31;;;;;;;5.32;1.70;;;15.90;99.90;;;;;;4984159;28;20030;-70
2022/05/13 09:23:57;;;;;;;5.25;1.75;;;15.90;99.90;;;;;;4981780;28;20090;-71
2022/05/13 09:26:25;;;;;;;12.18;2.25;;;15.90;99.90;;;;;;4983129;28;20027;-74
2022/05/13 09:29:13;;;;;;;3.28;1.73;;;15.90;99.90;;;;;;4977865;28;20035;-73
2022/05/13 09:32:01;;;;;;;3.97;1.55;;;16.00;99.90;;;;;;4968894;28;20032;-68
2022/05/13 09:34:41;;;;;;;5.80;1.75;;;16.20;99.90;;;;;;4982287;28;20365;-69
2022/05/13 09:37:20;;;;;;;8.02;2.20;;;16.30;99.90;;;;;;4976079;28;20031;-67
2022/05/13 09:39:47;;;;;;;5.30;1.30;;;16.20;99.90;;;;;;4966122;28;20038;-71
2022/05/13 09:42:22;;;;;;;1.65;1.00;;;16.30;99.90;;;;;;4974436;28;20058;-72
2022/05/13 09:44:48;;;;;;;2.42;1.02;;;16.50;99.90;;;;;;4984165;28;20111;-73
2022/05/13 09:47:24;;;;;;;23.77;1.77;;;16.70;99.90;;;;;;4984304;28;20031;-70
2022/05/13 09:49:50;;;;;;;4.85;1.55;;;16.70;99.90;;;;;;4984549;28;20038;-71
2022/05/13 09:52:32;;;;;;;7.45;1.63;;;16.60;99.90;;;;;;4963253;28;20062;-68
2022/05/13 09:55:25;;;;;;;4.30;1.40;;;16.50;99.90;;;;;;4965766;28;20035;-71
2022/05/13 09:57:52;;;;;;;4.85;1.33;;;16.50;99.90;;;;;;4965225;28;20051;-71
2022/05/13 10:00:24;;;;;;;6.50;1.52;;;16.50;99.90;;;;;;4974165;28;20037;-71
2022/05/13 10:03:16;;;;;;;3.70;1.40;;;16.60;99.90;;;;;;4984365;28;20062;-69
2022/05/13 10:05:41;;;;;;;5.38;1.83;;;16.90;99.90;;;;;;4982774;28;20027;-69
2022/05/13 10:08:15;;;;;;;3.95;1.50;;;17.20;99.90;;;;;;4973117;28;20031;-72
2022/05/13 10:14:25;;;;;;;2.35;1.40;;;17.10;99.90;;;;;;4974986;28;20052;-74
2022/05/13 10:16:53;;;;;;;9.00;1.48;;;16.70;99.90;;;;;;4974533;28;20034;-70
2022/05/13 10:19:30;;;;;;;11.93;1.65;;;16.40;99.90;;;;;;4969638;28;20023;-68
2022/05/13 10:22:16;;;;;;;5.65;1.27;;;16.30;99.90;;;;;;4973556;28;20027;-70
2022/05/13 10:25:03;;;;;;;3.10;1.38;;;16.20;99.90;;;;;;4970824;28;20506;-68
2022/05/13 10:27:44;;;;;;;5.30;1.23;;;16.10;99.90;;;;;;4967880;28;20024;-69
2022/05/13 10:30:20;;;;;;;1.60;0.85;;;16.10;99.90;;;;;;4976253;28;20487;-69
2022/05/13 10:33:04;;;;;;;8.57;1.60;;;16.10;99.90;;;;;;4986867;28;20118;-67
2022/05/13 10:35:46;;;;;;;0.67;0.57;;;16.10;99.90;;;;;;4983885;28;20080;-71
2022/05/13 10:38:35;;;;;;;1.90;1.08;;;16.00;99.90;;;;;;4986486;28;20046;-68
2022/05/13 10:41:21;;;;;;;3.97;1.05;;;15.80;99.90;;;;;;4980066;28;20035;-70
2022/05/13 10:43:56;;;;;;;7.95;0.85;;;15.70;99.90;;;;;;4984710;28;20055;-71
2022/05/13 10:46:34;;;;;;;5.07;1.05;;;15.70;99.90;;;;;;4983037;28;20046;-70
2022/05/13 10:49:03;;;;;;;3.38;1.35;;;15.70;99.90;;;;;;4980341;28;20031;-73
2022/05/13 10:51:48;;;;;;;2.78;1.00;;;15.80;99.90;;;;;;4985877;28;20054;-69
2022/05/13 10:54:25;;;;;;;4.07;0.98;;;15.90;99.90;;;;;;4920815;28;20137;-69
2022/05/13 10:57:27;;;;;;;0.85;0.60;;;16.00;99.90;;;;;;4985887;28;20034;-68
2022/05/13 11:00:03;;;;;;;1.90;1.00;;;16.10;99.90;;;;;;4986913;28;20026;-72
2022/05/13 11:02:35;;;;;;;2.92;1.15;;;16.30;99.90;;;;;;4969286;28;20035;-74
2022/05/13 11:05:25;;;;;;;1.60;0.85;;;16.50;99.90;;;;;;4974042;28;20027;-70
2022/05/13 11:08:12;;;;;;;3.20;1.20;;;16.60;99.90;;;;;;4984962;28;20051;-70
2022/05/13 11:11:07;;;;;;;1.52;0.90;;;16.80;99.90;;;;;;4971728;28;20117;-72
2022/05/13 11:14:00;;;;;;;1.38;0.95;;;16.90;99.90;;;;;;4981750;28;20082;-71
2022/05/13 11:16:48;;;;;;;2.83;1.15;;;16.90;99.90;;;;;;4977580;28;20039;-71
2022/05/13 11:19:33;;;;;;;2.20;0.95;;;17.00;99.90;;;;;;4976164;28;20042;-68
2022/05/13 11:22:08;;;;;;;2.78;0.82;;;17.10;99.90;;;;;;4982025;28;20030;-72
2022/05/13 11:28:08;;;;;;;2.63;0.95;;;17.60;99.90;;;;;;4969960;28;20081;-71
2022/05/13 11:30:38;;;;;;;;;;;17.50;99.90;;;;;;4958115;28;20030;-72
2022/05/13 11:33:23;;;;;;;1.38;1.02;;;17.30;99.90;;;;;;4981728;28;20016;-71
2022/05/13 11:36:09;;;;;;;3.63;0.93;;;17.20;99.90;;;;;;4977171;28;20035;-73
2022/05/13 11:38:38;;;;;;;9.20;1.45;;;17.10;99.90;;;;;;4980356;28;20041;-72
2022/05/13 11:41:11;;;;;;;1.08;0.80;;;17.00;99.90;;;;;;4985544;28;20086;-69
2022/05/13 11:43:57;;;;;;;1.65;0.88;;;16.90;99.90;;;;;;4985845;28;20074;-69
2022/05/13 11:47:00;;;;;;;1.65;0.70;;;16.70;99.90;;;;;;4985498;28;20831;-68
2022/05/13 11:49:36;;;;;;;3.20;1.00;;;16.70;99.90;;;;;;4985783;28;20459;-71
2022/05/13 11:52:11;;;;;;;8.13;0.90;;;16.60;99.90;;;;;;4986145;28;20030;-68
2022/05/13 11:54:40;;;;;;;4.50;1.20;;;16.60;99.90;;;;;;4986203;28;20034;-74
2022/05/13 11:57:29;;;;;;;1.48;0.95;;;16.70;99.90;;;;;;4986021;28;20026;-68
2022/05/13 12:00:24;;;;;;;2.05;0.50;;;16.70;99.90;;;;;;4976521;28;20037;-68
2022/05/13 12:02:50;;;;;;;3.45;1.20;;;16.80;99.90;;;;;;4978253;28;20076;-70
2022/05/13 12:05:16;;;;;;;1.85;1.02;;;16.90;99.90;;;;;;4979292;28;20379;-71
2022/05/13 12:07:57;;;;;;;4.38;0.85;;;17.00;99.90;;;;;;4975460;28;20035;-73
2022/05/13 12:10:46;;;;;;;2.47;1.13;;;17.10;99.90;;;;;;4967684;28;20345;-74
2022/05/13 12:13:30;;;;;;;2.47;1.08;;;17.00;99.90;;;;;;4966279;28;20102;-69
2022/05/13 12:16:32;;;;;;;2.35;0.82;;;17.00;99.90;;;;;;4976373;28;20031;-71
2022/05/13 12:19:19;;;;;;;1.23;0.70;;;17.00;99.90;;;;;;4965740;28;20115;-71
2022/05/13 12:22:08;;;;;;;3.15;0.60;;;16.90;99.90;;;;;;4983400;28;20086;-70
2022/05/13 12:24:59;;;;;;;4.00;1.20;;;17.00;99.90;;;;;;4978157;28;20054;-72
2022/05/13 12:27:34;;;;;;;1.45;1.15;;;17.20;99.90;;;;;;4985742;28;20038;-71
2022/05/13 12:30:04;;;;;;;2.08;0.80;;;17.40;99.90;;;;;;4979984;28;20135;-71
2022/05/13 12:32:45;;;;;;;2.88;0.63;;;17.90;99.90;;;;;;4971204;28;20078;-71
2022/05/13 12:38:12;;;;;;;2.53;0.85;;;18.20;99.90;;;;;;4980305;28;20065;-73
2022/05/13 12:40:59;;;;;;;3.30;0.98;;;18.40;99.90;;;;;;4965748;28;20027;-69
2022/05/13 12:44:21;;;;;;;6.38;1.50;;;18.40;99.90;;;;;;4977067;28;20103;-69
2022/05/13 12:46:49;;;;;;;1.45;0.88;;;18.40;99.90;;;;;;4924429;29;20040;-68
2022/05/13 12:49:27;;;;;;;1.10;0.68;;;18.40;99.90;;;;;;4937566;29;20024;-71
2022/05/13 12:52:04;;;;;;;2.13;1.00;;;18.50;99.90;;;;;;4971914;28;20039;-73
2022/05/13 12:54:42;;;;;;;5.95;0.82;;;18.50;99.90;;;;;;4985191;28;20090;-71
2022/05/13 12:57:14;;;;;;;0.57;0.57;;;18.50;99.90;;;;;;4984334;28;20110;-70
2022/05/13 12:59:50;;;;;;;3.45;0.80;;;18.50;99.90;;;;;;4967250;28;20034;-70
2022/05/13 13:02:19;;;;;;;0.90;0.60;;;18.60;99.90;;;;;;4980156;28;20142;-69
2022/05/13 13:04:56;;;;;;;1.60;0.80;;;18.70;99.90;;;;;;4965522;28;20480;-69
2022/05/13 13:07:25;;;;;;;1.15;0.70;;;18.80;99.90;;;;;;4966009;28;20091;-70
2022/05/13 13:09:53;;;;;;;1.33;0.63;;;18.80;99.90;;;;;;4965480;28;20039;-69
2022/05/13 13:12:49;;;;;;;1.75;0.68;;;19.00;99.90;;;;;;4965677;28;20031;-72
2022/05/13 13:15:26;;;;;;;1.88;0.57;;;19.10;99.90;;;;;;4965881;28;20027;-70
2022/05/13 13:18:04;;;;;;;13.73;1.00;;;19.10;99.90;;;;;;4965371;28;20031;-70
2022/05/13 13:20:31;;;;;;;0.68;0.35;;;19.00;99.90;;;;;;4966171;28;20075;-72
2022/05/13 13:23:08;;;;;;;1.98;0.63;;;18.70;99.90;;;;;;4965197;28;20089;-71
2022/05/13 13:25:45;;;;;;;1.73;0.82;;;18.50;99.90;;;;;;4965426;28;20036;-70
2022/05/13 13:28:20;;;;;;;2.67;0.40;;;18.40;99.90;;;;;;4965242;28;20038;-72
2022/05/13 13:30:54;;;;;;;0.90;0.50;;;18.30;99.90;;;;;;4965592;28;20042;-70
2022/05/13 13:33:25;;;;;;;;;;;18.30;99.90;;;;;;4966041;28;20031;-67
2022/05/13 13:35:50;;;;;;;1.48;0.55;;;18.30;99.90;;;;;;4965293;28;19910;-70
2022/05/13 13:38:17;;;;;;;1.20;0.60;;;18.10;99.90;;;;;;4964472;28;20031;-68
2022/05/13 13:40:52;;;;;;;1.23;0.68;;;18.10;99.90;;;;;;4967241;28;20464;-72
2022/05/13 13:43:26;;;;;;;0.70;0.70;;;18.00;99.90;;;;;;4965849;28;20063;-71